Saturday, August 24, 2019, 2:32 AM CDT
Back to Local

KBTR, Baton Rouge Metro Ryan Field

Location: Baton Rouge, LA, United States Lat: 30.533
Local Time: 2:32 AM CDT ( 7:32 GMT) Lon: -91.15
Time Zone: US/Central Elev: 68 ft

Show me the last for .
Show Decoded

2019-08-24 01:53 METAR KBTR 240653Z AUTO 05003KT 10SM CLR 24/23 A2997 RMK AO2 SLP149 T02440233 =
2019-08-24 00:53 METAR KBTR 240553Z AUTO 04003KT 10SM CLR 24/23 A2997 RMK AO2 SLP147 60000
                 T02440228 10272 20244 403000239 58001 =
2019-08-23 23:53 METAR KBTR 240453Z AUTO 00000KT 10SM CLR 24/23 A2997 RMK AO2 SLP149 T02440228 =
2019-08-23 22:53 METAR KBTR 240353Z 00000KT 10SM CLR 25/23 A2997 RMK AO2 SLP149 T02500228 =
2019-08-23 21:53 METAR KBTR 240253Z 16004KT 10SM CLR 26/22 A2997 RMK AO2 SLP148 60000 T02560217
                 53002 =
2019-08-23 20:53 METAR KBTR 240153Z 16006KT 10SM CLR 26/22 A2997 RMK AO2 RAB31E45 SLP147 P0000
                 T02610222 =
2019-08-23 19:53 METAR KBTR 240053Z 18007KT 10SM FEW120 27/22 A2996 RMK AO2 SLP144 T02720217 =
2019-08-23 18:53 METAR KBTR 232353Z 06004KT 10SM FEW026 SCT030 BKN039 27/24 A2996 RMK AO2 SLP146
                 60000 T02670239 10300 20267 50002 =
2019-08-23 17:53 METAR KBTR 232253Z 14005KT 10SM BKN026 28/24 A2997 RMK AO2 SLP149 T02830239 =
2019-08-23 16:53 METAR KBTR 232153Z 17009KT 10SM BKN026 30/23 A2997 RMK AO2 SLP147 T03000228 =
2019-08-23 15:53 METAR KBTR 232053Z 17008KT 10SM BKN024 29/23 A2996 RMK AO2 SLP144 60000
                 T02940233 58010 =
2019-08-23 14:53 METAR KBTR 231953Z 19009KT 10SM BKN024 30/23 A2997 RMK AO2 LTG DSNT N RAB1855E06
                 SLP146 P0000 T03000228 =
2019-08-23 13:53 METAR KBTR 231853Z 17011KT 10SM BKN024 29/23 A2999 RMK AO2 LTG DSNT NE SLP155
                 T02890228 =
2019-08-23 13:13 METAR KBTR 231813Z 20010KT 10SM BKN024 29/22 A2999 RMK AO2 T02890222 =
2019-08-23 12:53 METAR KBTR 231753Z VRB04KT 10SM FEW023 29/23 A2999 RMK AO2 LTG DSNT NE AND E
                 SLP154 60000 T02890233 10294 20244 58007 =
2019-08-23 11:53 METAR KBTR 231653Z 15007KT 10SM FEW020 28/23 A2999 RMK AO2 SLP155 T02780233 =
2019-08-23 10:53 METAR KBTR 231553Z 00000KT 10SM SCT026 28/23 A3001 RMK AO2 RAB37E47 SLP162 P0000
                 T02780233 =
2019-08-23 10:06 METAR KBTR 231506Z 00000KT 10SM FEW018 SCT027 27/23 A3001 RMK AO2 T02720228 =
2019-08-23 09:57 METAR KBTR 231457Z 14004KT 10SM FEW019 BKN027 27/23 A3001 =
2019-08-23 09:53 METAR KBTR 231453Z 14003KT 10SM SCT022 SCT027 27/23 A3001 RMK AO2 SLP161 60000
                 T02720228 51006 =
2019-08-23 08:53 METAR KBTR 231353Z 10003KT 10SM FEW046 26/24 A3001 RMK AO2 RAB06E49 SLP160 P0000
                 T02560239 =
2019-08-23 07:53 METAR KBTR 231253Z 12005KT 10SM CLR 26/24 A3000 RMK AO2 RAB18E27 SLP158 P0000
                 T02560239 =
2019-08-23 06:53 METAR KBTR 231153Z 00000KT 10SM SCT070 24/23 A2999 RMK AO2 SLP155 T02440233
                 10250 20239 53014 =
2019-08-23 05:53 METAR KBTR 231053Z 07003KT 10SM CLR 24/23 A2998 RMK AO2 SLP149 T02390228 =
2019-08-23 04:53 METAR KBTR 230953Z AUTO 00000KT 10SM CLR 24/23 A2997 RMK AO2 SLP146 T02390228 =
2019-08-23 03:53 METAR KBTR 230853Z AUTO 09003KT 10SM CLR 24/23 A2995 RMK AO2 SLP141 T02390228
                 58003 =
2019-08-23 02:53 METAR KBTR 230753Z AUTO 06003KT 10SM CLR 24/23 A2996 RMK AO2 SLP143 T02390228 =

Support USWX by starting your Amazon purchase here.